createdAt,value
2023-04-14T00:02:26.186Z,32.50
2023-04-14T00:04:54.497Z,34.10
2023-04-14T00:07:22.929Z,29.50
2023-04-14T00:09:51.110Z,32.47
2023-04-14T00:12:19.459Z,31.73
2023-04-14T00:14:50.485Z,32.67
2023-04-14T00:17:21.151Z,32.25
2023-04-14T00:19:51.546Z,32.97
2023-04-14T00:22:19.311Z,33.10
2023-04-14T00:24:47.666Z,30.48
2023-04-14T00:27:15.923Z,32.50
2023-04-14T00:29:47.356Z,32.20
2023-04-14T00:32:17.684Z,31.48
2023-04-14T00:34:46.553Z,33.47
2023-04-14T00:37:14.477Z,32.22
2023-04-14T00:39:43.171Z,31.58
2023-04-14T00:42:11.088Z,33.35
2023-04-14T00:44:43.836Z,32.58
2023-04-14T00:47:12.018Z,32.63
2023-04-14T00:49:39.762Z,32.58
2023-04-14T00:52:08.563Z,32.53
2023-04-14T00:54:40.811Z,32.50
2023-04-14T00:57:10.830Z,34.22
2023-04-14T00:59:42.477Z,32.58
2023-04-14T01:02:12.007Z,33.03
2023-04-14T01:04:52.886Z,34.70
2023-04-14T01:07:22.827Z,33.25
2023-04-14T01:09:52.409Z,33.00
2023-04-14T01:12:46.753Z,33.40
2023-04-14T01:15:37.986Z,28.88
2023-04-14T01:18:10.424Z,32.80
2023-04-14T01:20:43.121Z,34.47
2023-04-14T01:23:27.137Z,30.92
2023-04-14T01:26:17.431Z,32.83
2023-04-14T01:29:20.069Z,31.27
2023-04-14T01:31:54.226Z,27.50
2023-04-14T01:34:46.226Z,28.55
2023-04-14T01:37:16.914Z,28.95
2023-04-14T01:39:50.474Z,29.85
2023-04-14T01:42:25.957Z,30.75
2023-04-14T01:45:05.173Z,27.77
2023-04-14T01:47:33.197Z,28.10
2023-04-14T01:50:00.963Z,28.10
2023-04-14T01:52:32.691Z,29.25
2023-04-14T01:55:06.228Z,23.20
2023-04-14T01:57:34.600Z,30.33
2023-04-14T02:00:05.586Z,29.25
2023-04-14T02:02:46.583Z,26.67
2023-04-14T02:05:15.838Z,28.60
2023-04-14T02:07:47.289Z,29.38
2023-04-14T02:10:18.724Z,28.42
2023-04-14T02:12:53.454Z,26.40
2023-04-14T02:15:42.032Z,26.30
2023-04-14T02:18:12.297Z,24.30
2023-04-14T02:20:45.001Z,26.88
2023-04-14T02:23:28.606Z,26.33
2023-04-14T02:26:02.618Z,27.08
2023-04-14T02:28:35.005Z,11.93
2023-04-14T02:31:07.862Z,20.83
2023-04-14T02:33:37.711Z,22.23
2023-04-14T02:36:14.882Z,19.48
2023-04-14T02:38:50.754Z,22.60
2023-04-14T02:41:29.393Z,20.40
2023-04-14T02:44:22.926Z,21.88
2023-04-14T02:47:24.753Z,19.98
2023-04-14T02:49:57.617Z,17.50
2023-04-14T02:52:28.399Z,20.23
2023-04-14T02:55:02.189Z,21.77
2023-04-14T02:57:34.079Z,19.52
2023-04-14T03:00:04.461Z,20.45
2023-04-14T03:02:40.243Z,17.80
2023-04-14T03:05:10.610Z,20.30
2023-04-14T03:07:53.584Z,21.38
2023-04-14T03:10:31.482Z,21.92
2023-04-14T03:13:05.853Z,20.10
2023-04-14T03:15:36.869Z,18.30
2023-04-14T03:21:03.755Z,21.67
2023-04-14T03:23:41.637Z,21.23
2023-04-14T03:26:28.195Z,21.15
2023-04-14T03:29:25.776Z,22.75
2023-04-14T03:31:57.089Z,20.90
2023-04-14T03:34:30.583Z,20.98
2023-04-14T03:37:06.425Z,22.60
2023-04-14T03:39:54.264Z,21.42
2023-04-14T03:42:40.372Z,19.40
2023-04-14T03:45:21.776Z,21.60
2023-04-14T03:48:01.322Z,20.63
2023-04-14T03:50:41.409Z,18.50
2023-04-14T03:53:28.059Z,21.15
2023-04-14T03:56:04.044Z,19.10
2023-04-14T03:58:38.958Z,19.90
2023-04-14T04:04:02.927Z,16.48
2023-04-14T04:06:43.098Z,18.60
2023-04-14T04:14:48.582Z,15.35
2023-04-14T04:17:25.655Z,15.18
2023-04-14T04:19:59.155Z,13.43
2023-04-14T05:59:56.990Z,11.05
2023-04-14T06:02:28.538Z,11.75
2023-04-14T06:04:57.641Z,13.13
2023-04-14T06:07:26.376Z,11.55
2023-04-14T06:09:58.287Z,15.45
2023-04-14T06:12:32.945Z,21.65
2023-04-14T06:15:01.655Z,13.93
2023-04-14T06:17:34.102Z,19.95
2023-04-14T06:20:03.672Z,15.63
2023-04-14T06:22:36.013Z,14.67
2023-04-14T06:25:05.458Z,13.38
2023-04-14T06:27:39.637Z,13.23
2023-04-14T06:30:19.134Z,14.15
2023-04-14T06:32:54.555Z,12.80
2023-04-14T06:35:32.874Z,12.85
2023-04-14T06:38:02.926Z,13.63
2023-04-14T06:40:31.741Z,12.70
2023-04-14T06:43:04.538Z,13.18
2023-04-14T06:45:34.195Z,14.23
2023-04-14T06:48:05.700Z,12.35
2023-04-14T06:50:36.447Z,13.45
2023-04-14T06:53:06.692Z,12.75
2023-04-14T06:55:36.986Z,12.88
2023-04-14T06:58:11.451Z,12.45
2023-04-14T07:00:41.209Z,12.95
2023-04-14T07:03:12.090Z,12.10
2023-04-14T07:05:42.340Z,12.60
2023-04-14T07:08:11.906Z,10.45
2023-04-14T07:10:41.381Z,9.77
2023-04-14T07:13:11.017Z,9.68
2023-04-14T07:15:39.423Z,8.65
2023-04-14T07:18:07.475Z,10.20
2023-04-14T07:20:37.382Z,10.68
2023-04-14T07:23:07.318Z,10.27
2023-04-14T07:25:36.994Z,11.65
2023-04-14T07:31:24.639Z,9.82
2023-04-14T07:33:54.487Z,10.00
2023-04-14T07:43:20.316Z,10.23
2023-04-14T07:49:35.031Z,8.95
2023-04-14T08:02:26.023Z,10.70
2023-04-14T08:05:06.299Z,10.05
2023-04-14T08:07:43.508Z,12.07
2023-04-14T08:10:56.926Z,9.98
2023-04-14T08:17:07.786Z,10.25
2023-04-14T08:19:40.615Z,10.20
2023-04-14T08:22:23.008Z,9.18
2023-04-14T08:25:03.769Z,10.02
2023-04-14T08:27:47.467Z,8.90
2023-04-14T08:30:30.779Z,10.27
2023-04-14T08:33:04.682Z,11.10
2023-04-14T08:36:00.915Z,10.32
2023-04-14T08:42:48.281Z,9.45
2023-04-14T08:45:24.654Z,9.60
2023-04-14T08:48:43.074Z,8.73
2023-04-14T08:55:52.040Z,8.05
2023-04-14T08:58:20.281Z,7.53
2023-04-14T09:00:49.765Z,9.35
2023-04-14T09:03:20.090Z,8.50
2023-04-14T09:05:48.807Z,9.55
2023-04-14T09:08:17.453Z,7.22
2023-04-14T09:10:50.892Z,8.90
2023-04-14T09:13:21.640Z,9.77
2023-04-14T09:19:30.031Z,8.98
2023-04-14T09:21:59.778Z,7.93
2023-04-14T09:24:32.361Z,8.10
2023-04-14T09:27:05.849Z,8.13
2023-04-14T09:29:34.916Z,8.02
2023-04-14T09:32:15.682Z,7.82
2023-04-14T09:34:50.747Z,8.00
2023-04-14T09:37:47.444Z,7.82
2023-04-14T09:40:31.095Z,10.02
2023-04-14T09:42:59.149Z,9.35
2023-04-14T09:45:45.224Z,9.82
2023-04-14T09:48:14.405Z,9.93
2023-04-14T09:51:16.955Z,10.90
2023-04-14T09:53:48.575Z,10.63
2023-04-14T09:56:17.772Z,10.60
2023-04-14T09:58:47.859Z,9.95
2023-04-14T10:01:20.066Z,9.88
2023-04-14T10:03:56.713Z,8.50
2023-04-14T10:06:29.146Z,8.93
2023-04-14T10:08:59.542Z,8.10
2023-04-14T10:11:33.061Z,8.73
2023-04-14T10:18:54.076Z,7.28
2023-04-14T10:21:28.310Z,7.93
2023-04-14T10:23:58.021Z,8.00
2023-04-14T10:26:27.342Z,5.55
2023-04-14T10:29:03.085Z,6.43
2023-04-14T10:31:38.166Z,6.82
2023-04-14T10:34:14.421Z,7.70
2023-04-14T10:36:44.747Z,8.52
2023-04-14T10:39:14.753Z,9.02
2023-04-14T10:41:44.360Z,8.70
2023-04-14T10:44:38.423Z,8.13
2023-04-14T10:47:08.833Z,9.00
2023-04-14T10:49:38.833Z,8.35
2023-04-14T10:52:29.419Z,8.13
2023-04-14T10:55:02.159Z,8.65
2023-04-14T10:57:30.789Z,7.75
2023-04-14T11:00:04.254Z,7.55
2023-04-14T11:02:58.624Z,7.93
2023-04-14T11:05:28.144Z,7.90
2023-04-14T11:08:02.400Z,7.50
2023-04-14T11:10:41.089Z,7.85
2023-04-14T11:13:13.256Z,9.32
2023-04-14T11:15:43.484Z,8.15
2023-04-14T11:18:22.039Z,7.97
2023-04-14T11:20:53.287Z,8.65
2023-04-14T11:23:30.555Z,8.45
2023-04-14T11:25:59.631Z,9.23
2023-04-14T11:28:34.128Z,9.55
2023-04-14T11:31:05.562Z,9.68
2023-04-14T11:33:36.155Z,9.65
2023-04-14T11:36:07.823Z,10.48
2023-04-14T11:38:40.904Z,8.75
2023-04-14T11:41:10.187Z,8.60
2023-04-14T11:43:46.607Z,8.43
2023-04-14T11:46:23.390Z,7.32
2023-04-14T11:48:58.025Z,7.43
2023-04-14T11:51:40.700Z,7.18
2023-04-14T11:54:12.096Z,7.10
2023-04-14T11:56:40.847Z,7.30
2023-04-14T11:59:09.338Z,6.78
2023-04-14T12:01:37.347Z,6.55
2023-04-14T12:04:07.956Z,6.93
2023-04-14T12:06:40.310Z,5.63
2023-04-14T12:09:12.710Z,6.45
2023-04-14T12:11:54.785Z,5.75
2023-04-14T12:14:24.369Z,6.13
2023-04-14T12:16:52.965Z,6.47
2023-04-14T12:19:21.859Z,6.97
2023-04-14T12:21:54.975Z,7.55
2023-04-14T12:24:23.814Z,7.05
2023-04-14T12:26:52.688Z,6.28
2023-04-14T12:29:21.510Z,6.55
2023-04-14T12:31:50.709Z,6.32
2023-04-14T12:34:27.182Z,6.88
2023-04-14T12:36:55.965Z,6.60
2023-04-14T12:39:31.787Z,6.88
2023-04-14T12:41:59.662Z,6.60
2023-04-14T12:44:28.644Z,6.38
2023-04-14T12:46:57.659Z,6.00
2023-04-14T12:49:43.946Z,5.95
2023-04-14T12:52:40.172Z,5.90
2023-04-14T12:55:20.149Z,5.88
2023-04-14T12:57:54.235Z,7.25
2023-04-14T13:00:25.940Z,6.35
2023-04-14T13:02:55.911Z,5.53
2023-04-14T13:05:24.116Z,5.35
2023-04-14T13:07:55.414Z,4.95
2023-04-14T13:12:54.411Z,5.18
2023-04-14T13:16:12.986Z,6.20
2023-04-14T13:18:15.031Z,5.30
2023-04-14T13:20:44.571Z,5.60
2023-04-14T13:23:12.743Z,5.45
2023-04-14T13:25:40.838Z,5.40
2023-04-14T13:28:09.672Z,5.95
2023-04-14T13:30:41.843Z,5.53
2023-04-14T13:33:10.326Z,5.07
2023-04-14T13:35:39.875Z,4.88
2023-04-14T13:38:09.372Z,3.50
2023-04-14T13:40:47.480Z,4.70
2023-04-14T13:43:18.701Z,4.10
2023-04-14T13:45:49.741Z,4.30
2023-04-14T13:48:19.077Z,3.63
2023-04-14T13:50:52.044Z,3.65
2023-04-14T13:55:51.910Z,3.00
2023-04-14T13:58:21.912Z,3.45
2023-04-14T14:00:51.811Z,3.42
2023-04-14T14:03:45.614Z,2.80
2023-04-14T14:06:15.791Z,4.13
2023-04-14T14:08:45.633Z,3.58
2023-04-14T14:11:17.578Z,3.40
2023-04-14T14:13:47.645Z,3.35
2023-04-14T14:16:33.185Z,3.25
2023-04-14T14:19:11.524Z,2.83
2023-04-14T14:21:42.060Z,3.20
2023-04-14T14:24:11.752Z,3.55
2023-04-14T14:26:40.651Z,3.70
2023-04-14T14:29:13.714Z,3.20
2023-04-14T14:31:42.115Z,3.10
2023-04-14T14:34:11.340Z,3.70
2023-04-14T14:36:39.755Z,2.70
2023-04-14T14:39:10.574Z,2.80
2023-04-14T14:41:39.659Z,2.72
2023-04-14T14:44:08.056Z,2.80
2023-04-14T14:46:36.603Z,3.33
2023-04-14T14:49:07.090Z,2.88
2023-04-14T14:51:36.628Z,3.05
2023-04-14T14:54:10.311Z,3.13
2023-04-14T14:56:42.072Z,2.83
2023-04-14T14:59:09.952Z,2.80
2023-04-14T15:01:38.407Z,3.60
2023-04-14T15:04:06.922Z,3.63
2023-04-14T15:06:37.498Z,3.33
2023-04-14T15:09:06.764Z,3.78
2023-04-14T15:11:37.662Z,3.53
2023-04-14T15:14:06.917Z,4.10
2023-04-14T15:16:35.131Z,3.97
2023-04-14T15:19:04.973Z,3.42
2023-04-14T15:21:34.969Z,3.97
2023-04-14T15:24:04.165Z,3.78
2023-04-14T15:26:33.265Z,3.90
2023-04-14T15:29:02.739Z,4.00
2023-04-14T15:31:40.041Z,5.22
2023-04-14T15:34:14.518Z,5.35
2023-04-14T15:36:43.490Z,4.38
2023-04-14T15:39:13.451Z,3.70
2023-04-14T15:41:44.885Z,3.20
2023-04-14T15:44:12.647Z,3.30
2023-04-14T15:46:40.692Z,3.20
2023-04-14T15:49:12.279Z,3.63
2023-04-14T15:51:41.196Z,3.22
2023-04-14T15:54:08.856Z,3.92
2023-04-14T15:56:38.513Z,3.95
2023-04-14T16:01:49.402Z,4.70
2023-04-14T16:04:18.146Z,3.90
2023-04-14T16:06:46.761Z,4.10
2023-04-14T16:09:15.775Z,4.07
2023-04-14T16:11:43.760Z,4.38
2023-04-14T16:14:15.352Z,5.68
2023-04-14T16:16:47.259Z,16.15
2023-04-14T16:19:16.244Z,4.82
2023-04-14T16:21:44.351Z,3.47
2023-04-14T16:24:12.258Z,6.78
2023-04-14T16:26:41.555Z,3.50
2023-04-14T16:29:10.973Z,3.10
2023-04-14T16:31:38.785Z,2.50
2023-04-14T16:34:07.235Z,3.50
2023-04-14T16:36:35.002Z,2.33
2023-04-14T16:39:03.621Z,3.00
2023-04-14T16:41:32.180Z,3.05
2023-04-14T16:44:00.824Z,2.97
2023-04-14T16:46:28.999Z,3.95
2023-04-14T16:48:56.761Z,3.78
2023-04-14T16:51:26.991Z,4.10
2023-04-14T16:53:55.851Z,6.30
2023-04-14T16:56:24.188Z,7.88
2023-04-14T16:58:52.219Z,6.53
2023-04-14T17:01:21.088Z,5.20
2023-04-14T17:03:49.537Z,5.13
2023-04-14T17:06:17.316Z,5.00
2023-04-14T17:08:47.389Z,4.97
2023-04-14T17:11:16.197Z,4.43
2023-04-14T17:13:45.190Z,4.57
2023-04-14T17:16:18.921Z,4.00
2023-04-14T17:18:48.341Z,3.80
2023-04-14T17:21:16.033Z,4.00
2023-04-14T17:23:57.476Z,3.90
2023-04-14T17:26:27.872Z,2.97
2023-04-14T17:28:56.972Z,3.30
2023-04-14T17:31:26.928Z,2.65
2023-04-14T17:33:58.222Z,3.60
2023-04-14T17:36:30.212Z,2.40
2023-04-14T17:38:58.577Z,2.13
2023-04-14T17:41:28.033Z,2.45
2023-04-14T17:44:43.625Z,2.72
2023-04-14T17:47:15.656Z,3.17
2023-04-14T17:49:48.851Z,2.20
2023-04-14T17:52:27.223Z,3.10
2023-04-14T17:54:56.332Z,3.80
2023-04-14T17:57:39.933Z,4.13
2023-04-14T18:00:20.375Z,4.78
